sensor_id;sensor_type;location;lat;lon;timestamp;pressure;altitude;pressure_sealevel;temperature;humidity
41945;BME280;63122;52.424;13.458;2023-01-27T00:02:04;101531.88;;;-0.06;100.00
41945;BME280;63122;52.424;13.458;2023-01-27T00:04:33;101531.81;;;-0.04;100.00
41945;BME280;63122;52.424;13.458;2023-01-27T00:07:04;101521.41;;;-0.04;100.00
41945;BME280;63122;52.424;13.458;2023-01-27T00:09:34;101529.16;;;-0.03;100.00
41945;BME280;63122;52.424;13.458;2023-01-27T00:12:04;101526.56;;;-0.03;100.00
41945;BME280;63122;52.424;13.458;2023-01-27T00:14:47;101517.91;;;-0.03;100.00
41945;BME280;63122;52.424;13.458;2023-01-27T00:17:20;101517.09;;;-0.04;100.00
41945;BME280;63122;52.424;13.458;2023-01-27T00:19:49;101518.69;;;-0.01;100.00
41945;BME280;63122;52.424;13.458;2023-01-27T00:22:20;101523.00;;;0.00;100.00
41945;BME280;63122;52.424;13.458;2023-01-27T00:25:03;101527.28;;;0.01;100.00
41945;BME280;63122;52.424;13.458;2023-01-27T00:27:33;101522.94;;;0.02;100.00
41945;BME280;63122;52.424;13.458;2023-01-27T00:30:04;101520.41;;;0.00;100.00
41945;BME280;63122;52.424;13.458;2023-01-27T00:32:38;101527.22;;;0.03;100.00
41945;BME280;63122;52.424;13.458;2023-01-27T00:35:20;101516.91;;;0.01;100.00
41945;BME280;63122;52.424;13.458;2023-01-27T00:37:51;101514.31;;;0.01;100.00
41945;BME280;63122;52.424;13.458;2023-01-27T00:40:21;101516.91;;;0.01;100.00
41945;BME280;63122;52.424;13.458;2023-01-27T00:42:52;101519.50;;;0.01;100.00
41945;BME280;63122;52.424;13.458;2023-01-27T00:45:22;101526.44;;;0.01;100.00
41945;BME280;63122;52.424;13.458;2023-01-27T00:48:08;101526.44;;;0.01;100.00
41945;BME280;63122;52.424;13.458;2023-01-27T00:50:39;101528.97;;;0.02;100.00
41945;BME280;63122;52.424;13.458;2023-01-27T00:53:09;101524.63;;;0.03;100.00
41945;BME280;63122;52.424;13.458;2023-01-27T00:55:40;101528.91;;;0.04;100.00
41945;BME280;63122;52.424;13.458;2023-01-27T00:58:11;101527.16;;;0.04;100.00
41945;BME280;63122;52.424;13.458;2023-01-27T01:00:41;101532.53;;;-0.01;100.00
41945;BME280;63122;52.424;13.458;2023-01-27T01:03:14;101532.41;;;0.03;100.00
41945;BME280;63122;52.424;13.458;2023-01-27T01:05:44;101534.09;;;0.04;100.00
41945;BME280;63122;52.424;13.458;2023-01-27T01:08:14;101530.59;;;0.05;100.00
41945;BME280;63122;52.424;13.458;2023-01-27T01:10:45;101537.47;;;0.06;100.00
41945;BME280;63122;52.424;13.458;2023-01-27T01:13:15;101534.03;;;0.05;100.00
41945;BME280;63122;52.424;13.458;2023-01-27T01:15:47;101538.31;;;0.06;100.00
41945;BME280;63122;52.424;13.458;2023-01-27T01:18:21;101538.38;;;0.05;100.00
41945;BME280;63122;52.424;13.458;2023-01-27T01:20:51;101534.94;;;0.04;100.00
41945;BME280;63122;52.424;13.458;2023-01-27T01:23:22;101540.13;;;0.04;100.00
41945;BME280;63122;52.424;13.458;2023-01-27T01:25:52;101544.56;;;0.02;100.00
41945;BME280;63122;52.424;13.458;2023-01-27T01:28:24;101555.75;;;0.03;100.00
41945;BME280;63122;52.424;13.458;2023-01-27T01:30:54;101541.81;;;0.05;100.00
41945;BME280;63122;52.424;13.458;2023-01-27T01:33:27;101547.81;;;0.07;100.00
41945;BME280;63122;52.424;13.458;2023-01-27T01:36:02;101546.81;;;0.10;100.00
41945;BME280;63122;52.424;13.458;2023-01-27T01:38:33;101550.19;;;0.12;100.00
41945;BME280;63122;52.424;13.458;2023-01-27T01:41:03;101548.50;;;0.11;100.00
41945;BME280;63122;52.424;13.458;2023-01-27T01:43:34;101541.56;;;0.11;100.00
41945;BME280;63122;52.424;13.458;2023-01-27T01:46:07;101549.28;;;0.13;100.00
41945;BME280;63122;52.424;13.458;2023-01-27T01:48:42;101542.41;;;0.12;100.00
41945;BME280;63122;52.424;13.458;2023-01-27T01:51:17;101545.06;;;0.10;100.00
41945;BME280;63122;52.424;13.458;2023-01-27T01:53:51;101548.50;;;0.11;100.00
41945;BME280;63122;52.424;13.458;2023-01-27T01:56:29;101552.88;;;0.10;100.00
41945;BME280;63122;52.424;13.458;2023-01-27T01:59:03;101562.38;;;0.10;100.00
41945;BME280;63122;52.424;13.458;2023-01-27T02:01:35;101558.09;;;0.09;100.00
41945;BME280;63122;52.424;13.458;2023-01-27T02:04:11;101558.88;;;0.11;100.00
41945;BME280;63122;52.424;13.458;2023-01-27T02:06:48;101554.59;;;0.10;100.00
41945;BME280;63122;52.424;13.458;2023-01-27T02:09:22;101556.19;;;0.14;100.00
41945;BME280;63122;52.424;13.458;2023-01-27T02:11:52;101556.25;;;0.12;100.00
41945;BME280;63122;52.424;13.458;2023-01-27T02:14:22;101557.06;;;0.13;100.00
41945;BME280;63122;52.424;13.458;2023-01-27T02:16:52;101556.41;;;0.08;100.00
41945;BME280;63122;52.424;13.458;2023-01-27T02:19:36;101564.41;;;0.03;100.00
41945;BME280;63122;52.424;13.458;2023-01-27T02:22:15;101559.09;;;0.06;100.00
41945;BME280;63122;52.424;13.458;2023-01-27T02:24:53;101550.31;;;0.09;100.00
41945;BME280;63122;52.424;13.458;2023-01-27T02:27:29;101555.38;;;0.12;100.00
41945;BME280;63122;52.424;13.458;2023-01-27T02:29:59;101551.03;;;0.12;100.00
41945;BME280;63122;52.424;13.458;2023-01-27T02:32:29;101552.72;;;0.13;100.00
41945;BME280;63122;52.424;13.458;2023-01-27T02:35:01;101551.03;;;0.12;100.00
41945;BME280;63122;52.424;13.458;2023-01-27T02:37:31;101548.56;;;0.09;100.00
41945;BME280;63122;52.424;13.458;2023-01-27T02:40:04;101550.19;;;0.12;100.00
41945;BME280;63122;52.424;13.458;2023-01-27T02:42:37;101557.97;;;0.12;100.00
41945;BME280;63122;52.424;13.458;2023-01-27T02:45:08;101547.66;;;0.10;100.00
41945;BME280;63122;52.424;13.458;2023-01-27T02:47:39;101553.63;;;0.12;100.00
41945;BME280;63122;52.424;13.458;2023-01-27T02:50:10;101562.34;;;0.11;100.00
41945;BME280;63122;52.424;13.458;2023-01-27T02:52:40;101572.22;;;0.02;100.00
41945;BME280;63122;52.424;13.458;2023-01-27T02:55:10;101579.06;;;0.04;100.00
41945;BME280;63122;52.424;13.458;2023-01-27T02:57:43;101576.25;;;0.09;100.00
41945;BME280;63122;52.424;13.458;2023-01-27T03:00:14;101573.44;;;0.15;100.00
41945;BME280;63122;52.424;13.458;2023-01-27T03:02:44;101575.97;;;0.17;100.00
41945;BME280;63122;52.424;13.458;2023-01-27T03:05:14;101581.94;;;0.19;100.00
41945;BME280;63122;52.424;13.458;2023-01-27T03:07:44;101569.75;;;0.21;100.00
41945;BME280;63122;52.424;13.458;2023-01-27T03:10:15;101574.88;;;0.22;100.00
41945;BME280;63122;52.424;13.458;2023-01-27T03:12:48;101575.72;;;0.23;100.00
41945;BME280;63122;52.424;13.458;2023-01-27T03:15:18;101574.81;;;0.24;100.00
41945;BME280;63122;52.424;13.458;2023-01-27T03:18:05;101577.28;;;0.27;100.00
41945;BME280;63122;52.424;13.458;2023-01-27T03:20:44;101571.25;;;0.26;100.00
41945;BME280;63122;52.424;13.458;2023-01-27T03:23:17;101568.66;;;0.26;100.00
41945;BME280;63122;52.424;13.458;2023-01-27T03:25:48;101566.88;;;0.27;100.00
41945;BME280;63122;52.424;13.458;2023-01-27T03:28:21;101568.59;;;0.28;100.00
41945;BME280;63122;52.424;13.458;2023-01-27T03:30:58;101568.66;;;0.26;100.00
41945;BME280;63122;52.424;13.458;2023-01-27T03:33:28;101570.38;;;0.26;100.00
41945;BME280;63122;52.424;13.458;2023-01-27T03:36:00;101566.88;;;0.27;100.00
41945;BME280;63122;52.424;13.458;2023-01-27T03:38:43;101570.28;;;0.29;100.00
41945;BME280;63122;52.424;13.458;2023-01-27T03:41:25;101571.97;;;0.30;100.00
41945;BME280;63122;52.424;13.458;2023-01-27T03:44:11;101568.53;;;0.30;100.00
41945;BME280;63122;52.424;13.458;2023-01-27T03:46:54;101568.47;;;0.31;100.00
41945;BME280;63122;52.424;13.458;2023-01-27T03:49:24;101572.81;;;0.31;100.00
41945;BME280;63122;52.424;13.458;2023-01-27T03:51:54;101575.41;;;0.31;100.00
41945;BME280;63122;52.424;13.458;2023-01-27T03:54:24;101572.81;;;0.31;100.00
41945;BME280;63122;52.424;13.458;2023-01-27T03:56:55;101567.69;;;0.29;100.00
41945;BME280;63122;52.424;13.458;2023-01-27T03:59:34;101570.28;;;0.29;100.00
41945;BME280;63122;52.424;13.458;2023-01-27T04:02:05;101572.75;;;0.32;100.00
41945;BME280;63122;52.424;13.458;2023-01-27T04:04:48;101573.59;;;0.33;100.00
41945;BME280;63122;52.424;13.458;2023-01-27T04:07:33;101577.88;;;0.34;100.00
41945;BME280;63122;52.424;13.458;2023-01-27T04:10:05;101566.66;;;0.33;100.00
41945;BME280;63122;52.424;13.458;2023-01-27T04:12:35;101571.78;;;0.35;100.00
41945;BME280;63122;52.424;13.458;2023-01-27T04:15:07;101569.19;;;0.35;100.00
41945;BME280;63122;52.424;13.458;2023-01-27T04:17:38;101582.16;;;0.35;100.00
41945;BME280;63122;52.424;13.458;2023-01-27T04:20:10;101574.44;;;0.33;100.00
41945;BME280;63122;52.424;13.458;2023-01-27T04:22:40;101577.88;;;0.34;100.00
41945;BME280;63122;52.424;13.458;2023-01-27T04:25:10;101586.53;;;0.34;100.00
41945;BME280;63122;52.424;13.458;2023-01-27T04:27:41;101572.63;;;0.35;100.00
41945;BME280;63122;52.424;13.458;2023-01-27T04:30:15;101580.41;;;0.35;100.00
41945;BME280;63122;52.424;13.458;2023-01-27T04:32:45;101580.34;;;0.37;100.00
41945;BME280;63122;52.424;13.458;2023-01-27T04:35:15;101587.16;;;0.39;100.00
41945;BME280;63122;52.424;13.458;2023-01-27T04:37:49;101590.53;;;0.41;100.00
41945;BME280;63122;52.424;13.458;2023-01-27T04:40:19;101591.31;;;0.43;100.00
41945;BME280;63122;52.424;13.458;2023-01-27T04:42:52;101588.72;;;0.43;100.00
41945;BME280;63122;52.424;13.458;2023-01-27T04:45:25;101589.59;;;0.44;100.00
41945;BME280;63122;52.424;13.458;2023-01-27T04:47:55;101593.00;;;0.45;100.00
41945;BME280;63122;52.424;13.458;2023-01-27T04:50:25;101591.41;;;0.42;100.00
41945;BME280;63122;52.424;13.458;2023-01-27T04:52:55;101596.59;;;0.42;100.00
41945;BME280;63122;52.424;13.458;2023-01-27T04:55:26;101598.28;;;0.43;100.00
41945;BME280;63122;52.424;13.458;2023-01-27T04:57:56;101596.53;;;0.43;100.00
41945;BME280;63122;52.424;13.458;2023-01-27T05:00:29;101594.78;;;0.44;100.00
41945;BME280;63122;52.424;13.458;2023-01-27T05:02:59;101596.47;;;0.45;100.00
41945;BME280;63122;52.424;13.458;2023-01-27T05:05:31;101596.47;;;0.45;100.00
41945;BME280;63122;52.424;13.458;2023-01-27T05:08:02;101604.19;;;0.47;100.00
41945;BME280;63122;52.424;13.458;2023-01-27T05:10:32;101598.06;;;0.48;100.00
41945;BME280;63122;52.424;13.458;2023-01-27T05:13:02;101603.28;;;0.48;100.00
41945;BME280;63122;52.424;13.458;2023-01-27T05:15:35;101602.44;;;0.47;100.00
41945;BME280;63122;52.424;13.458;2023-01-27T05:18:05;101608.47;;;0.48;100.00
41945;BME280;63122;52.424;13.458;2023-01-27T05:20:37;101609.38;;;0.47;100.00
41945;BME280;63122;52.424;13.458;2023-01-27T05:23:07;101615.34;;;0.49;100.00
41945;BME280;63122;52.424;13.458;2023-01-27T05:25:49;101616.13;;;0.51;100.00
41945;BME280;63122;52.424;13.458;2023-01-27T05:28:20;101616.19;;;0.49;100.00
41945;BME280;63122;52.424;13.458;2023-01-27T05:30:52;101620.63;;;0.47;100.00
41945;BME280;63122;52.424;13.458;2023-01-27T05:33:29;101626.63;;;0.48;100.00
41945;BME280;63122;52.424;13.458;2023-01-27T05:36:01;101617.13;;;0.48;100.00
41945;BME280;63122;52.424;13.458;2023-01-27T05:38:31;101624.91;;;0.48;100.00
41945;BME280;63122;52.424;13.458;2023-01-27T05:41:04;101629.31;;;0.46;100.00
41945;BME280;63122;52.424;13.458;2023-01-27T05:43:36;101636.31;;;0.44;100.00
41945;BME280;63122;52.424;13.458;2023-01-27T05:46:11;101637.22;;;0.43;100.00
41945;BME280;63122;52.424;13.458;2023-01-27T05:48:44;101642.47;;;0.41;100.00
41945;BME280;63122;52.424;13.458;2023-01-27T05:51:16;101634.84;;;0.37;100.00
41945;BME280;63122;52.424;13.458;2023-01-27T05:53:47;101631.34;;;0.38;100.00
41945;BME280;63122;52.424;13.458;2023-01-27T05:56:18;101641.75;;;0.38;100.00
41945;BME280;63122;52.424;13.458;2023-01-27T05:58:49;101634.03;;;0.36;100.00
41945;BME280;63122;52.424;13.458;2023-01-27T06:01:23;101640.84;;;0.39;100.00
41945;BME280;63122;52.424;13.458;2023-01-27T06:03:55;101642.66;;;0.37;100.00
41945;BME280;63122;52.424;13.458;2023-01-27T06:06:27;101638.22;;;0.39;100.00
41945;BME280;63122;52.424;13.458;2023-01-27T06:08:58;101634.06;;;0.35;100.00
41945;BME280;63122;52.424;13.458;2023-01-27T06:11:28;101639.91;;;0.40;100.00
41945;BME280;63122;52.424;13.458;2023-01-27T06:13:59;101639.22;;;0.36;100.00
41945;BME280;63122;52.424;13.458;2023-01-27T06:16:32;101639.47;;;0.30;100.00
41945;BME280;63122;52.424;13.458;2023-01-27T06:19:03;101644.72;;;0.28;100.00
41945;BME280;63122;52.424;13.458;2023-01-27T06:21:33;101638.59;;;0.30;100.00
41945;BME280;63122;52.424;13.458;2023-01-27T06:24:04;101637.56;;;0.34;100.00
41945;BME280;63122;52.424;13.458;2023-01-27T06:26:35;101647.84;;;0.37;100.00
41945;BME280;63122;52.424;13.458;2023-01-27T06:29:05;101655.69;;;0.35;100.00
41945;BME280;63122;52.424;13.458;2023-01-27T06:31:38;101656.53;;;0.36;100.00
41945;BME280;63122;52.424;13.458;2023-01-27T06:34:08;101654.53;;;0.42;100.00
41945;BME280;63122;52.424;13.458;2023-01-27T06:36:38;101647.53;;;0.45;100.00
41945;BME280;63122;52.424;13.458;2023-01-27T06:39:08;101646.59;;;0.47;100.00
41945;BME280;63122;52.424;13.458;2023-01-27T06:41:38;101645.81;;;0.45;100.00
41945;BME280;63122;52.424;13.458;2023-01-27T06:44:09;101657.25;;;0.39;100.00
41945;BME280;63122;52.424;13.458;2023-01-27T06:46:41;101653.94;;;0.36;100.00
41945;BME280;63122;52.424;13.458;2023-01-27T06:49:11;101653.03;;;0.37;100.00
41945;BME280;63122;52.424;13.458;2023-01-27T06:51:42;101657.38;;;0.36;100.00
41945;BME280;63122;52.424;13.458;2023-01-27T06:54:12;101661.84;;;0.33;100.00
41945;BME280;63122;52.424;13.458;2023-01-27T06:56:42;101660.03;;;0.35;100.00
41945;BME280;63122;52.424;13.458;2023-01-27T06:59:12;101668.72;;;0.34;100.00
41945;BME280;63122;52.424;13.458;2023-01-27T07:01:45;101670.38;;;0.36;100.00
41945;BME280;63122;52.424;13.458;2023-01-27T07:04:15;101677.31;;;0.36;100.00
41945;BME280;63122;52.424;13.458;2023-01-27T07:06:45;101675.56;;;0.36;100.00
41945;BME280;63122;52.424;13.458;2023-01-27T07:09:15;101673.75;;;0.38;100.00
41945;BME280;63122;52.424;13.458;2023-01-27T07:11:45;101677.91;;;0.42;100.00
41945;BME280;63122;52.424;13.458;2023-01-27T07:14:16;101671.69;;;0.47;100.00
41945;BME280;63122;52.424;13.458;2023-01-27T07:16:48;101670.84;;;0.46;100.00
41945;BME280;63122;52.424;13.458;2023-01-27T07:19:18;101681.13;;;0.49;100.00
41945;BME280;63122;52.424;13.458;2023-01-27T07:21:48;101684.50;;;0.51;100.00
41945;BME280;63122;52.424;13.458;2023-01-27T07:24:19;101679.19;;;0.54;100.00
41945;BME280;63122;52.424;13.458;2023-01-27T07:26:49;101686.84;;;0.57;100.00
41945;BME280;63122;52.424;13.458;2023-01-27T07:29:20;101690.28;;;0.58;100.00
41945;BME280;63122;52.424;13.458;2023-01-27T07:31:52;101682.50;;;0.58;100.00
41945;BME280;63122;52.424;13.458;2023-01-27T07:34:23;101684.97;;;0.61;100.00
41945;BME280;63122;52.424;13.458;2023-01-27T07:36:52;101690.88;;;0.65;100.00
41945;BME280;63122;52.424;13.458;2023-01-27T07:39:23;101692.56;;;0.66;100.00
41945;BME280;63122;52.424;13.458;2023-01-27T07:41:54;101700.34;;;0.66;100.00
41945;BME280;63122;52.424;13.458;2023-01-27T07:44:25;101698.53;;;0.68;100.00
41945;BME280;63122;52.424;13.458;2023-01-27T07:46:58;101695.91;;;0.69;100.00
41945;BME280;63122;52.424;13.458;2023-01-27T07:49:28;101699.34;;;0.70;100.00
41945;BME280;63122;52.424;13.458;2023-01-27T07:51:58;101704.41;;;0.73;100.00
41945;BME280;63122;52.424;13.458;2023-01-27T07:54:29;101706.94;;;0.75;100.00
41945;BME280;63122;52.424;13.458;2023-01-27T07:56:59;101712.13;;;0.75;100.00
41945;BME280;63122;52.424;13.458;2023-01-27T07:59:30;101707.78;;;0.75;100.00
41945;BME280;63122;52.424;13.458;2023-01-27T08:02:02;101715.38;;;0.80;100.00
41945;BME280;63122;52.424;13.458;2023-01-27T08:04:33;101715.38;;;0.80;100.00
41945;BME280;63122;52.424;13.458;2023-01-27T08:07:18;101717.81;;;0.84;100.00
41945;BME280;63122;52.424;13.458;2023-01-27T08:09:49;101711.78;;;0.84;100.00
41945;BME280;63122;52.424;13.458;2023-01-27T08:12:20;101710.06;;;0.83;100.00
41945;BME280;63122;52.424;13.458;2023-01-27T08:14:50;101713.47;;;0.85;100.00
41945;BME280;63122;52.424;13.458;2023-01-27T08:17:23;101716.00;;;0.86;100.00
41945;BME280;63122;52.424;13.458;2023-01-27T08:19:53;101710.75;;;0.88;100.00
41945;BME280;63122;52.424;13.458;2023-01-27T08:22:23;101716.72;;;0.90;100.00
41945;BME280;63122;52.424;13.458;2023-01-27T08:24:54;101717.41;;;0.94;100.00
41945;BME280;63122;52.424;13.458;2023-01-27T08:27:24;101712.31;;;0.92;100.00
41945;BME280;63122;52.424;13.458;2023-01-27T08:29:55;101720.09;;;0.92;100.00
41945;BME280;63122;52.424;13.458;2023-01-27T08:32:28;101722.63;;;0.94;100.00
41945;BME280;63122;52.424;13.458;2023-01-27T08:34:58;101728.59;;;0.96;100.00
41945;BME280;63122;52.424;13.458;2023-01-27T08:37:28;101732.88;;;0.97;100.00
41945;BME280;63122;52.424;13.458;2023-01-27T08:39:59;101732.00;;;0.98;100.00
41945;BME280;63122;52.424;13.458;2023-01-27T08:42:30;101737.13;;;0.99;100.00
41945;BME280;63122;52.424;13.458;2023-01-27T08:45:00;101737.97;;;1.00;100.00
41945;BME280;63122;52.424;13.458;2023-01-27T08:47:33;101735.38;;;1.00;100.00
41945;BME280;63122;52.424;13.458;2023-01-27T08:50:04;101738.88;;;0.99;100.00
41945;BME280;63122;52.424;13.458;2023-01-27T08:52:34;101744.88;;;1.01;100.00
41945;BME280;63122;52.424;13.458;2023-01-27T08:55:05;101743.97;;;1.02;100.00
41945;BME280;63122;52.424;13.458;2023-01-27T08:57:35;101750.75;;;1.05;100.00
41945;BME280;63122;52.424;13.458;2023-01-27T09:00:07;101756.75;;;1.07;100.00
41945;BME280;63122;52.424;13.458;2023-01-27T09:02:41;101745.53;;;1.06;100.00
41945;BME280;63122;52.424;13.458;2023-01-27T09:05:13;101758.50;;;1.06;100.00
41945;BME280;63122;52.424;13.458;2023-01-27T09:07:45;101754.09;;;1.08;100.00
41945;BME280;63122;52.424;13.458;2023-01-27T09:10:16;101755.69;;;1.11;100.00
41945;BME280;63122;52.424;13.458;2023-01-27T09:12:48;101761.63;;;1.14;100.00
41945;BME280;63122;52.424;13.458;2023-01-27T09:15:18;101753.91;;;1.13;100.00
41945;BME280;63122;52.424;13.458;2023-01-27T09:17:51;101756.44;;;1.14;100.00
41945;BME280;63122;52.424;13.458;2023-01-27T09:20:21;101763.06;;;1.22;100.00
41945;BME280;63122;52.424;13.458;2023-01-27T09:22:53;101759.63;;;1.21;100.00
41945;BME280;63122;52.424;13.458;2023-01-27T09:25:24;101767.94;;;1.29;100.00
41945;BME280;63122;52.424;13.458;2023-01-27T09:27:55;101773.16;;;1.29;100.00
41945;BME280;63122;52.424;13.458;2023-01-27T09:30:27;101776.41;;;1.35;100.00
41945;BME280;63122;52.424;13.458;2023-01-27T09:32:59;101778.16;;;1.34;100.00
41945;BME280;63122;52.424;13.458;2023-01-27T09:35:35;101779.91;;;1.34;100.00
41945;BME280;63122;52.424;13.458;2023-01-27T09:38:08;101782.47;;;1.35;100.00
41945;BME280;63122;52.424;13.458;2023-01-27T09:41:00;101786.66;;;1.38;100.00
41945;BME280;63122;52.424;13.458;2023-01-27T09:43:46;101784.97;;;1.37;100.00
41945;BME280;63122;52.424;13.458;2023-01-27T09:46:35;101777.00;;;1.41;100.00
41945;BME280;63122;52.424;13.458;2023-01-27T09:49:27;101786.44;;;1.44;100.00
41945;BME280;63122;52.424;13.458;2023-01-27T09:52:13;101791.63;;;1.44;100.00
41945;BME280;63122;52.424;13.458;2023-01-27T09:54:52;101787.25;;;1.44;100.00
41945;BME280;63122;52.424;13.458;2023-01-27T09:57:31;101790.63;;;1.47;100.00
41945;BME280;63122;52.424;13.458;2023-01-27T10:00:17;101789.59;;;1.51;100.00
41945;BME280;63122;52.424;13.458;2023-01-27T10:03:06;101793.84;;;1.53;100.00
41945;BME280;63122;52.424;13.458;2023-01-27T10:05:56;101786.81;;;1.55;100.00
41945;BME280;63122;52.424;13.458;2023-01-27T10:08:53;101784.94;;;1.59;100.00
41945;BME280;63122;52.424;13.458;2023-01-27T10:11:29;101789.00;;;1.65;100.00
41945;BME280;63122;52.424;13.458;2023-01-27T10:14:13;101789.78;;;1.67;100.00
41945;BME280;63122;52.424;13.458;2023-01-27T10:16:54;101791.41;;;1.69;100.00
41945;BME280;63122;52.424;13.458;2023-01-27T10:19:40;101790.47;;;1.72;100.00
41945;BME280;63122;52.424;13.458;2023-01-27T10:22:24;101796.44;;;1.74;100.00
41945;BME280;63122;52.424;13.458;2023-01-27T10:25:07;101786.72;;;1.78;100.00
41945;BME280;63122;52.424;13.458;2023-01-27T10:27:45;101799.69;;;1.79;100.00
41945;BME280;63122;52.424;13.458;2023-01-27T10:30:20;101797.00;;;1.81;100.00
41945;BME280;63122;52.424;13.458;2023-01-27T10:33:03;101796.13;;;1.82;100.00
41945;BME280;63122;52.424;13.458;2023-01-27T10:35:40;101804.69;;;1.84;100.00
41945;BME280;63122;52.424;13.458;2023-01-27T10:38:23;101795.97;;;1.85;100.00
41945;BME280;63122;52.424;13.458;2023-01-27T10:41:06;101802.00;;;1.85;100.00
41945;BME280;63122;52.424;13.458;2023-01-27T10:43:48;101802.50;;;1.94;100.00
41945;BME280;63122;52.424;13.458;2023-01-27T10:46:27;101797.31;;;1.94;100.00
41945;BME280;63122;52.424;13.458;2023-01-27T10:49:05;101796.41;;;1.95;100.00
41945;BME280;63122;52.424;13.458;2023-01-27T10:51:42;101802.47;;;1.95;100.00
41945;BME280;63122;52.424;13.458;2023-01-27T10:54:23;101800.63;;;1.97;100.00
41945;BME280;63122;52.424;13.458;2023-01-27T10:56:59;101799.72;;;1.98;100.00
41945;BME280;63122;52.424;13.458;2023-01-27T10:59:37;101791.84;;;2.00;100.00
41945;BME280;63122;52.424;13.458;2023-01-27T11:02:32;101798.63;;;2.04;100.00
41945;BME280;63122;52.424;13.458;2023-01-27T11:05:08;101801.06;;;2.07;100.00
41945;BME280;63122;52.424;13.458;2023-01-27T11:07:46;101792.22;;;2.11;100.00
41945;BME280;63122;52.424;13.458;2023-01-27T11:10:21;101795.66;;;2.12;100.00
41945;BME280;63122;52.424;13.458;2023-01-27T11:12:54;101794.09;;;2.08;100.00
41945;BME280;63122;52.424;13.458;2023-01-27T11:15:27;101793.91;;;2.12;100.00
41945;BME280;63122;52.424;13.458;2023-01-27T11:18:03;101794.47;;;2.19;100.00
41945;BME280;63122;52.424;13.458;2023-01-27T11:20:37;101797.91;;;2.20;100.00
41945;BME280;63122;52.424;13.458;2023-01-27T11:23:14;101802.00;;;2.25;100.00
41945;BME280;63122;52.424;13.458;2023-01-27T11:25:52;101798.63;;;2.23;100.00
41945;BME280;63122;52.424;13.458;2023-01-27T11:28:30;101799.41;;;2.25;100.00
41945;BME280;63122;52.424;13.458;2023-01-27T11:31:06;101797.44;;;2.30;100.00
41945;BME280;63122;52.424;13.458;2023-01-27T11:33:49;101794.63;;;2.35;100.00
41945;BME280;63122;52.424;13.458;2023-01-27T11:36:24;101802.63;;;2.30;100.00
41945;BME280;63122;52.424;13.458;2023-01-27T11:38:55;101787.88;;;2.31;100.00
41945;BME280;63122;52.424;13.458;2023-01-27T11:41:31;101785.25;;;2.31;100.00
41945;BME280;63122;52.424;13.458;2023-01-27T11:44:03;101788.56;;;2.35;100.00
41945;BME280;63122;52.424;13.458;2023-01-27T11:46:35;101792.06;;;2.34;100.00
41945;BME280;63122;52.424;13.458;2023-01-27T11:49:07;101791.31;;;2.32;100.00
41945;BME280;63122;52.424;13.458;2023-01-27T11:51:38;101787.78;;;2.33;100.00
41945;BME280;63122;52.424;13.458;2023-01-27T11:54:13;101794.53;;;2.37;100.00
41945;BME280;63122;52.424;13.458;2023-01-27T11:56:48;101784.13;;;2.37;100.00
41945;BME280;63122;52.424;13.458;2023-01-27T11:59:22;101788.28;;;2.41;100.00
41945;BME280;63122;52.424;13.458;2023-01-27T12:01:55;101782.31;;;2.39;100.00
41945;BME280;63122;52.424;13.458;2023-01-27T12:04:42;101785.53;;;2.44;100.00
41945;BME280;63122;52.424;13.458;2023-01-27T12:07:19;101787.28;;;2.43;100.00
41945;BME280;63122;52.424;13.458;2023-01-27T12:09:51;101779.56;;;2.42;100.00
41945;BME280;63122;52.424;13.458;2023-01-27T12:12:25;101772.94;;;2.54;100.00
41945;BME280;63122;52.424;13.458;2023-01-27T12:14:57;101778.06;;;2.55;100.00
41945;BME280;63122;52.424;13.458;2023-01-27T12:17:31;101784.19;;;2.54;100.00
41945;BME280;63122;52.424;13.458;2023-01-27T12:20:06;101780.59;;;2.57;100.00
41945;BME280;63122;52.424;13.458;2023-01-27T12:22:50;101783.75;;;2.64;100.00
41945;BME280;63122;52.424;13.458;2023-01-27T12:25:24;101783.06;;;2.60;100.00
41945;BME280;63122;52.424;13.458;2023-01-27T12:28:00;101786.75;;;2.56;100.00
41945;BME280;63122;52.424;13.458;2023-01-27T12:30:33;101775.47;;;2.55;100.00
41945;BME280;63122;52.424;13.458;2023-01-27T12:33:11;101776.16;;;2.59;100.00
41945;BME280;63122;52.424;13.458;2023-01-27T12:35:47;101771.94;;;2.56;100.00
41945;BME280;63122;52.424;13.458;2023-01-27T12:38:20;101776.22;;;2.57;100.00
41945;BME280;63122;52.424;13.458;2023-01-27T12:40:56;101770.72;;;2.64;100.00
41945;BME280;63122;52.424;13.458;2023-01-27T12:43:30;101770.81;;;2.62;100.00
41945;BME280;63122;52.424;13.458;2023-01-27T12:46:17;101766.31;;;2.66;100.00
41945;BME280;63122;52.424;13.458;2023-01-27T12:48:50;101769.75;;;2.66;100.00
41945;BME280;63122;52.424;13.458;2023-01-27T12:51:22;101773.06;;;2.70;100.00
41945;BME280;63122;52.424;13.458;2023-01-27T12:54:13;101765.25;;;2.70;100.00
41945;BME280;63122;52.424;13.458;2023-01-27T12:56:44;101768.00;;;2.67;100.00
41945;BME280;63122;52.424;13.458;2023-01-27T12:59:18;101774.03;;;2.67;100.00
41945;BME280;63122;52.424;13.458;2023-01-27T13:01:57;101778.41;;;2.67;100.00
41945;BME280;63122;52.424;13.458;2023-01-27T13:04:29;101769.69;;;2.68;100.00
41945;BME280;63122;52.424;13.458;2023-01-27T13:07:05;101772.41;;;2.65;100.00
41945;BME280;63122;52.424;13.458;2023-01-27T13:09:39;101778.53;;;2.64;100.00
41945;BME280;63122;52.424;13.458;2023-01-27T13:12:20;101780.16;;;2.66;100.00
41945;BME280;63122;52.424;13.458;2023-01-27T13:14:55;101777.56;;;2.66;100.00